createdAt,value
2018-02-20T00:00:39.211Z,96.60
2018-02-20T00:03:07.443Z,96.60
2018-02-20T00:05:36.574Z,96.70
2018-02-20T00:08:04.862Z,96.70
2018-02-20T00:10:33.194Z,96.70
2018-02-20T00:13:02.176Z,96.60
2018-02-20T00:15:30.428Z,96.60
2018-02-20T00:17:58.688Z,96.60
2018-02-20T00:20:27.171Z,96.50
2018-02-20T00:22:55.496Z,96.60
2018-02-20T00:25:23.950Z,96.40
2018-02-20T00:27:52.351Z,96.20
2018-02-20T00:30:21.371Z,96.20
2018-02-20T00:32:49.603Z,96.20
2018-02-20T00:35:19.088Z,96.50
2018-02-20T00:37:47.369Z,96.20
2018-02-20T00:40:15.748Z,96.20
2018-02-20T00:42:45.646Z,96.40
2018-02-20T00:45:14.152Z,96.40
2018-02-20T00:47:42.637Z,96.50
2018-02-20T00:50:10.999Z,96.60
2018-02-20T00:52:39.275Z,96.60
2018-02-20T00:55:07.657Z,96.60
2018-02-20T00:57:36.046Z,96.70
2018-02-20T01:00:04.389Z,96.50
2018-02-20T01:02:32.732Z,96.50
2018-02-20T01:05:01.007Z,96.50
2018-02-20T01:07:29.393Z,96.50
2018-02-20T01:09:57.682Z,96.60
2018-02-20T01:12:26.109Z,96.50
2018-02-20T01:14:54.342Z,96.50
2018-02-20T01:17:22.629Z,96.60
2018-02-20T01:19:51.256Z,96.50
2018-02-20T01:22:19.530Z,96.40
2018-02-20T01:24:47.907Z,96.40
2018-02-20T01:27:16.173Z,96.50
2018-02-20T01:29:44.437Z,96.50
2018-02-20T01:32:12.702Z,96.50
2018-02-20T01:34:40.963Z,96.50
2018-02-20T01:37:09.246Z,96.50
2018-02-20T01:39:38.298Z,96.50
2018-02-20T01:42:06.511Z,96.50
2018-02-20T01:44:35.524Z,96.40
2018-02-20T01:47:05.300Z,96.40
2018-02-20T01:49:33.649Z,96.40
2018-02-20T01:52:01.909Z,96.70
2018-02-20T01:54:30.157Z,96.40
2018-02-20T01:56:59.249Z,96.40
2018-02-20T01:59:27.776Z,96.20
2018-02-20T02:01:56.034Z,96.20
2018-02-20T02:04:24.989Z,96.20
2018-02-20T02:06:53.189Z,96.10
2018-02-20T02:09:23.754Z,96.30
2018-02-20T02:11:52.036Z,96.30
2018-02-20T02:14:20.318Z,96.30
2018-02-20T02:16:48.673Z,96.30
2018-02-20T02:19:17.301Z,96.30
2018-02-20T02:21:45.581Z,96.30
2018-02-20T02:24:14.072Z,96.30
2018-02-20T02:26:42.511Z,96.40
2018-02-20T02:29:10.776Z,96.30
2018-02-20T02:31:39.184Z,96.30
2018-02-20T02:34:07.616Z,96.40
2018-02-20T02:36:36.575Z,96.50
2018-02-20T02:39:06.059Z,96.60
2018-02-20T02:41:34.290Z,96.60
2018-02-20T02:44:02.646Z,96.60
2018-02-20T02:46:31.770Z,96.70
2018-02-20T02:49:00.087Z,96.70
2018-02-20T02:51:28.399Z,96.70
2018-02-20T02:53:56.844Z,96.70
2018-02-20T02:56:25.081Z,96.60
2018-02-20T02:58:54.043Z,96.60
2018-02-20T03:01:22.319Z,96.60
2018-02-20T03:03:51.301Z,96.60
2018-02-20T03:06:19.684Z,96.60
2018-02-20T03:08:47.909Z,96.60
2018-02-20T03:11:17.139Z,96.70
2018-02-20T03:13:45.737Z,96.70
2018-02-20T03:16:14.006Z,96.70
2018-02-20T03:18:42.230Z,96.70
2018-02-20T03:21:10.692Z,96.70
2018-02-20T03:23:39.249Z,96.70
2018-02-20T03:26:07.526Z,96.70
2018-02-20T03:28:35.779Z,96.70
2018-02-20T03:31:04.016Z,96.70
2018-02-20T03:33:33.097Z,96.70
2018-02-20T03:36:02.352Z,96.70
2018-02-20T03:38:31.432Z,96.70
2018-02-20T03:40:59.712Z,96.70
2018-02-20T03:43:28.679Z,96.70
2018-02-20T03:45:56.925Z,96.70
2018-02-20T03:48:25.351Z,96.60
2018-02-20T03:50:53.674Z,96.70
2018-02-20T03:53:22.189Z,96.80
2018-02-20T03:55:50.476Z,96.80
2018-02-20T03:58:18.823Z,96.80
2018-02-20T04:00:47.072Z,96.70
2018-02-20T04:03:15.514Z,96.80
2018-02-20T04:05:44.882Z,96.70
2018-02-20T04:08:13.261Z,96.70
2018-02-20T04:10:41.732Z,96.70
2018-02-20T04:13:10.043Z,96.70
2018-02-20T04:15:39.607Z,96.70
2018-02-20T04:18:08.351Z,96.70
2018-02-20T04:20:36.686Z,96.60
2018-02-20T04:23:04.968Z,96.60
2018-02-20T04:25:33.341Z,96.60
2018-02-20T04:28:01.631Z,96.60
2018-02-20T04:30:29.880Z,96.60
2018-02-20T04:32:59.116Z,96.60
2018-02-20T04:35:28.397Z,96.70
2018-02-20T04:37:56.790Z,96.70
2018-02-20T04:40:25.258Z,96.70
2018-02-20T04:42:53.543Z,96.60
2018-02-20T04:45:22.685Z,96.70
2018-02-20T04:47:51.033Z,96.70
2018-02-20T04:50:19.397Z,96.70
2018-02-20T04:52:47.644Z,96.70
2018-02-20T04:55:16.063Z,96.70
2018-02-20T04:57:44.541Z,96.70
2018-02-20T05:00:12.876Z,96.80
2018-02-20T05:02:41.166Z,96.70
2018-02-20T05:05:09.412Z,96.70
2018-02-20T05:07:38.452Z,96.60
2018-02-20T05:10:06.769Z,96.60
2018-02-20T05:12:35.430Z,96.60
2018-02-20T05:15:03.678Z,96.50
2018-02-20T05:17:32.263Z,96.50
2018-02-20T05:20:00.553Z,96.50
2018-02-20T05:22:28.950Z,96.60
2018-02-20T05:24:57.208Z,96.60
2018-02-20T05:27:25.475Z,96.60
2018-02-20T05:29:53.765Z,96.60
2018-02-20T05:32:22.831Z,96.60
2018-02-20T05:34:52.173Z,96.60
2018-02-20T05:37:20.468Z,96.60
2018-02-20T05:39:48.697Z,96.60
2018-02-20T05:42:17.758Z,96.60
2018-02-20T05:44:47.527Z,96.60
2018-02-20T05:47:15.776Z,96.60
2018-02-20T05:49:44.031Z,96.50
2018-02-20T05:52:12.337Z,96.50
2018-02-20T05:54:40.581Z,96.40
2018-02-20T05:57:08.796Z,96.50
2018-02-20T05:59:37.924Z,96.40
2018-02-20T06:02:07.808Z,96.30
2018-02-20T06:04:36.051Z,96.30
2018-02-20T06:07:05.297Z,96.30
2018-02-20T06:09:33.695Z,96.30
2018-02-20T06:12:03.016Z,96.30
2018-02-20T06:14:32.186Z,96.30
2018-02-20T06:17:00.942Z,96.30
2018-02-20T06:19:29.344Z,96.30
2018-02-20T06:21:58.322Z,96.30
2018-02-20T06:24:26.650Z,96.30
2018-02-20T06:26:55.106Z,96.30
2018-02-20T06:29:23.386Z,96.30
2018-02-20T06:31:51.815Z,96.30
2018-02-20T06:34:20.860Z,96.30
2018-02-20T06:36:49.129Z,96.30
2018-02-20T06:39:17.522Z,96.20
2018-02-20T06:41:45.902Z,96.20
2018-02-20T06:44:14.293Z,96.20
2018-02-20T06:46:42.739Z,96.20
2018-02-20T06:49:10.992Z,96.20
2018-02-20T06:51:40.081Z,96.20
2018-02-20T06:54:09.564Z,96.20
2018-02-20T06:56:37.832Z,96.20
2018-02-20T06:59:06.192Z,96.20
2018-02-20T07:01:34.600Z,96.20
2018-02-20T07:04:03.635Z,96.20
2018-02-20T07:06:31.987Z,96.20
2018-02-20T07:09:00.334Z,96.20
2018-02-20T07:11:28.713Z,96.30
2018-02-20T07:13:56.966Z,96.30
2018-02-20T07:16:25.319Z,96.30
2018-02-20T07:18:53.848Z,96.30
2018-02-20T07:21:22.330Z,96.30
2018-02-20T07:23:50.558Z,96.40
2018-02-20T07:26:19.607Z,96.40
2018-02-20T07:28:47.925Z,96.40
2018-02-20T07:31:16.146Z,96.40
2018-02-20T07:33:44.428Z,96.50
2018-02-20T07:36:12.718Z,96.50
2018-02-20T07:38:40.946Z,96.50
2018-02-20T07:41:09.930Z,96.50
2018-02-20T07:43:38.177Z,96.50
2018-02-20T07:46:06.517Z,96.90
2018-02-20T07:48:34.816Z,96.50
2018-02-20T07:51:03.057Z,96.50
2018-02-20T07:53:31.677Z,96.60
2018-02-20T07:56:00.054Z,96.50
2018-02-20T07:58:28.433Z,96.40
2018-02-20T08:00:57.426Z,96.30
2018-02-20T08:03:26.428Z,96.30
2018-02-20T08:05:55.518Z,96.30
2018-02-20T08:08:23.807Z,96.30
2018-02-20T08:10:52.391Z,96.00
2018-02-20T08:13:20.754Z,96.00
2018-02-20T08:15:49.137Z,96.00
2018-02-20T08:18:17.624Z,96.00
2018-02-20T08:20:46.112Z,95.90
2018-02-20T08:23:14.481Z,95.70
2018-02-20T08:25:42.856Z,95.50
2018-02-20T08:28:11.105Z,95.00
2018-02-20T08:30:40.147Z,94.00
2018-02-20T08:33:08.665Z,94.00
2018-02-20T08:35:37.153Z,94.00
2018-02-20T08:38:05.669Z,94.10
2018-02-20T08:40:33.956Z,93.20
2018-02-20T08:43:02.221Z,93.10
2018-02-20T08:45:30.619Z,92.80
2018-02-20T08:47:58.898Z,92.40
2018-02-20T08:50:27.282Z,92.20
2018-02-20T08:52:55.741Z,91.90
2018-02-20T08:55:24.033Z,91.80
2018-02-20T08:57:52.378Z,91.90
2018-02-20T09:00:22.221Z,91.10
2018-02-20T09:02:52.192Z,91.00
2018-02-20T09:05:21.193Z,91.10
2018-02-20T09:07:50.224Z,91.10
2018-02-20T09:10:18.759Z,91.10
2018-02-20T09:12:48.556Z,90.10
2018-02-20T09:15:16.865Z,90.10
2018-02-20T09:17:45.284Z,90.50
2018-02-20T09:20:13.710Z,90.50
2018-02-20T09:22:42.895Z,90.50
2018-02-20T09:25:11.114Z,90.30
2018-02-20T09:27:40.300Z,90.00
2018-02-20T09:30:08.722Z,89.90
2018-02-20T09:32:36.968Z,89.60
2018-02-20T09:35:05.253Z,88.60
2018-02-20T09:37:33.611Z,89.60
2018-02-20T09:40:02.632Z,88.80
2018-02-20T09:42:31.047Z,88.80
2018-02-20T09:44:59.297Z,90.20
2018-02-20T09:47:28.483Z,88.30
2018-02-20T09:49:57.131Z,88.30
2018-02-20T09:52:26.231Z,85.40
2018-02-20T09:54:55.297Z,84.00
2018-02-20T09:57:23.593Z,83.30
2018-02-20T09:59:52.059Z,83.10
2018-02-20T10:02:21.928Z,82.70
2018-02-20T10:04:50.972Z,82.30
2018-02-20T10:07:19.255Z,82.30
2018-02-20T10:09:48.400Z,81.10
2018-02-20T10:12:16.712Z,81.40
2018-02-20T10:14:45.646Z,80.80
2018-02-20T10:17:14.703Z,79.60
2018-02-20T10:19:42.999Z,79.60
2018-02-20T10:22:12.095Z,81.10
2018-02-20T10:24:40.546Z,81.10
2018-02-20T10:27:08.822Z,79.70
2018-02-20T10:29:37.924Z,80.80
2018-02-20T10:32:07.198Z,80.70
2018-02-20T10:34:35.484Z,80.50
2018-02-20T10:37:04.454Z,79.70
2018-02-20T10:39:33.565Z,78.40
2018-02-20T10:42:01.859Z,78.40
2018-02-20T10:44:30.566Z,78.70
2018-02-20T10:46:58.826Z,78.90
2018-02-20T10:49:27.088Z,76.10
2018-02-20T10:51:55.501Z,77.30
2018-02-20T10:54:25.137Z,77.00
2018-02-20T10:56:53.486Z,74.80
2018-02-20T10:59:21.891Z,76.90
2018-02-20T11:01:50.137Z,77.80
2018-02-20T11:04:18.452Z,75.30
2018-02-20T11:06:46.919Z,72.70
2018-02-20T11:09:15.846Z,74.70
2018-02-20T11:11:44.141Z,76.00
2018-02-20T11:14:12.461Z,72.40
2018-02-20T11:16:41.252Z,73.80
2018-02-20T11:19:10.449Z,76.00
2018-02-20T11:21:38.734Z,75.90
2018-02-20T11:24:07.914Z,73.30
2018-02-20T11:26:36.185Z,73.30
2018-02-20T11:29:04.569Z,71.70
2018-02-20T11:31:33.066Z,72.60
2018-02-20T11:34:01.778Z,72.20
2018-02-20T11:36:31.766Z,72.60
2018-02-20T11:39:00.130Z,72.20
2018-02-20T11:41:28.513Z,74.20
2018-02-20T11:43:56.906Z,73.70
2018-02-20T11:46:25.225Z,72.20
2018-02-20T11:48:54.226Z,71.90
2018-02-20T11:51:22.619Z,71.90
2018-02-20T11:53:51.157Z,70.20
2018-02-20T11:56:20.233Z,69.30
2018-02-20T11:58:48.512Z,69.10
2018-02-20T12:01:17.741Z,68.40
2018-02-20T12:03:47.106Z,69.10
2018-02-20T12:06:16.508Z,68.50
2018-02-20T12:08:45.644Z,66.60
2018-02-20T12:11:13.982Z,66.90
2018-02-20T12:13:42.244Z,68.10
2018-02-20T12:16:11.445Z,66.10
2018-02-20T12:18:39.843Z,65.60
2018-02-20T12:21:08.701Z,65.80
2018-02-20T12:23:36.966Z,68.80
2018-02-20T12:26:05.293Z,66.90
2018-02-20T12:28:33.573Z,63.70
2018-02-20T12:31:01.998Z,64.50
2018-02-20T12:33:31.252Z,63.00
2018-02-20T12:35:59.870Z,63.30
2018-02-20T12:38:28.128Z,64.30
2018-02-20T12:40:57.102Z,65.30
2018-02-20T12:43:26.319Z,65.30
2018-02-20T12:45:54.710Z,63.60
2018-02-20T12:48:24.006Z,63.00
2018-02-20T12:50:53.096Z,66.30
2018-02-20T12:53:21.582Z,64.40
2018-02-20T12:55:50.758Z,62.60
2018-02-20T12:58:19.124Z,62.40
2018-02-20T13:00:47.411Z,65.80
2018-02-20T13:03:15.905Z,63.50
2018-02-20T13:05:44.524Z,62.90
2018-02-20T13:08:13.584Z,65.50
2018-02-20T13:10:42.060Z,64.70
2018-02-20T13:13:10.341Z,63.40
2018-02-20T13:15:38.614Z,63.20
2018-02-20T13:18:07.716Z,64.80
2018-02-20T13:20:36.102Z,66.60
2018-02-20T13:23:04.570Z,66.00
2018-02-20T13:25:32.951Z,63.80
2018-02-20T13:28:01.339Z,66.60
2018-02-20T13:30:30.064Z,65.40
2018-02-20T13:32:59.093Z,68.50
2018-02-20T13:35:27.507Z,68.00
2018-02-20T13:37:55.763Z,66.50
2018-02-20T13:40:24.135Z,67.60
2018-02-20T13:42:52.393Z,67.50
2018-02-20T13:45:21.768Z,68.30
2018-02-20T13:47:50.820Z,69.40
2018-02-20T13:50:20.769Z,67.70
2018-02-20T13:52:49.257Z,67.60
2018-02-20T13:55:19.033Z,67.60
2018-02-20T13:57:48.049Z,67.60
2018-02-20T14:00:16.413Z,66.00
2018-02-20T14:02:44.707Z,65.60
2018-02-20T14:05:14.001Z,66.30
2018-02-20T14:07:42.339Z,66.30
2018-02-20T14:10:11.462Z,65.60
2018-02-20T14:12:39.695Z,65.60
2018-02-20T14:15:08.913Z,67.20
2018-02-20T14:17:38.049Z,67.90
2018-02-20T14:20:06.559Z,67.80
2018-02-20T14:22:34.824Z,67.10
2018-02-20T14:25:04.579Z,65.80
2018-02-20T14:27:33.571Z,66.10
2018-02-20T14:30:01.814Z,66.00
2018-02-20T14:32:30.888Z,65.60
2018-02-20T14:34:59.565Z,65.60
2018-02-20T14:37:27.976Z,66.10
2018-02-20T14:39:56.290Z,66.80
2018-02-20T14:42:25.578Z,67.70
2018-02-20T14:44:53.851Z,67.70
2018-02-20T14:47:22.870Z,68.50
2018-02-20T14:49:51.110Z,68.50
2018-02-20T14:52:19.448Z,68.60
2018-02-20T14:54:47.732Z,71.20
2018-02-20T14:57:16.107Z,73.10
2018-02-20T14:59:45.314Z,73.40
2018-02-20T15:02:13.705Z,74.20
2018-02-20T15:04:43.204Z,74.40
2018-02-20T15:07:11.498Z,74.50
2018-02-20T15:09:39.798Z,74.50
2018-02-20T15:12:08.909Z,73.00
2018-02-20T15:14:38.027Z,73.70
2018-02-20T15:17:07.172Z,73.10
2018-02-20T15:19:35.413Z,73.00
2018-02-20T15:22:03.841Z,73.10
2018-02-20T15:24:32.899Z,73.90
2018-02-20T15:27:01.128Z,73.90
2018-02-20T15:29:29.508Z,73.60
2018-02-20T15:31:57.855Z,73.30
2018-02-20T15:34:26.213Z,73.80
2018-02-20T15:36:54.624Z,73.80
2018-02-20T15:39:22.873Z,75.40
2018-02-20T15:41:51.292Z,75.30
2018-02-20T15:44:19.561Z,75.40
2018-02-20T15:46:47.993Z,75.90
2018-02-20T15:49:16.697Z,75.60
2018-02-20T15:51:44.943Z,76.30
2018-02-20T15:54:13.983Z,76.30
2018-02-20T15:56:42.583Z,76.40
2018-02-20T15:59:10.925Z,76.80
2018-02-20T16:01:39.794Z,76.00
2018-02-20T16:04:08.183Z,76.70
2018-02-20T16:06:36.687Z,77.10
2018-02-20T16:09:05.009Z,75.40
2018-02-20T16:11:33.592Z,76.40
2018-02-20T16:14:14.700Z,75.20
2018-02-20T16:16:43.146Z,75.40
2018-02-20T16:19:12.591Z,75.10
2018-02-20T16:21:40.902Z,75.10
2018-02-20T16:24:09.198Z,75.00
2018-02-20T16:26:39.309Z,75.20
2018-02-20T16:29:09.252Z,76.00
2018-02-20T16:31:40.264Z,77.00
2018-02-20T16:34:08.638Z,76.50
2018-02-20T16:36:36.930Z,77.00
2018-02-20T16:39:05.342Z,77.00
2018-02-20T16:41:33.778Z,76.40
2018-02-20T16:44:02.154Z,76.60
2018-02-20T16:46:30.526Z,77.30
2018-02-20T16:48:58.905Z,77.80
2018-02-20T16:51:27.190Z,78.30
2018-02-20T16:53:56.299Z,78.10
2018-02-20T16:56:24.643Z,78.90
2018-02-20T16:58:53.067Z,79.30
2018-02-20T17:01:21.467Z,80.20
2018-02-20T17:03:50.759Z,80.10
2018-02-20T17:06:19.213Z,80.50
2018-02-20T17:08:48.623Z,80.60
2018-02-20T17:11:16.995Z,80.60
2018-02-20T17:13:46.079Z,81.20
2018-02-20T17:16:14.457Z,81.10
2018-02-20T17:18:42.714Z,81.80
2018-02-20T17:21:10.923Z,82.50
2018-02-20T17:23:39.389Z,83.10
2018-02-20T17:26:08.603Z,83.50
2018-02-20T17:28:37.139Z,84.20
2018-02-20T17:31:05.697Z,84.70
2018-02-20T17:33:35.522Z,84.60
2018-02-20T17:36:04.685Z,84.50
2018-02-20T17:38:33.454Z,84.50
2018-02-20T17:41:01.864Z,84.20
2018-02-20T17:43:30.419Z,83.80
2018-02-20T17:45:58.892Z,83.50
2018-02-20T17:48:27.290Z,83.50
2018-02-20T17:50:56.384Z,84.40
2018-02-20T17:53:24.802Z,84.40
2018-02-20T17:55:53.896Z,83.80
2018-02-20T17:58:22.147Z,83.70
2018-02-20T18:00:50.412Z,83.60
2018-02-20T18:03:18.793Z,82.00
2018-02-20T18:05:47.082Z,81.30
2018-02-20T18:08:15.348Z,81.00
2018-02-20T18:10:44.667Z,80.60
2018-02-20T18:13:13.006Z,80.60
2018-02-20T18:15:41.250Z,80.20
2018-02-20T18:18:09.516Z,80.30
2018-02-20T18:20:37.903Z,80.70
2018-02-20T18:23:07.187Z,80.80
2018-02-20T18:25:36.366Z,80.80
2018-02-20T18:28:04.642Z,81.00
2018-02-20T18:30:32.912Z,81.40
2018-02-20T18:33:02.022Z,82.30
2018-02-20T18:35:30.491Z,82.30
2018-02-20T18:37:58.888Z,82.40
2018-02-20T18:40:27.150Z,82.40
2018-02-20T18:42:55.412Z,82.80
2018-02-20T18:45:23.912Z,82.80
2018-02-20T18:47:52.330Z,82.60
2018-02-20T18:50:21.075Z,82.70
2018-02-20T18:52:49.771Z,82.80
2018-02-20T18:55:18.049Z,82.90
2018-02-20T18:57:46.867Z,83.30
2018-02-20T19:00:15.861Z,82.90
2018-02-20T19:02:45.695Z,83.70
2018-02-20T19:05:14.012Z,83.70
2018-02-20T19:07:42.272Z,83.50
2018-02-20T19:10:11.090Z,83.70
2018-02-20T19:12:40.456Z,83.90
2018-02-20T19:15:09.694Z,83.60
2018-02-20T19:17:38.073Z,83.60
2018-02-20T19:20:07.042Z,83.90
2018-02-20T19:22:35.455Z,84.00
2018-02-20T19:25:03.820Z,83.90
2018-02-20T19:27:32.121Z,83.90
2018-02-20T19:30:01.405Z,84.00
2018-02-20T19:32:30.005Z,83.80
2018-02-20T19:34:58.295Z,83.50
2018-02-20T19:37:27.398Z,82.60
2018-02-20T19:39:56.919Z,82.60
2018-02-20T19:42:26.222Z,82.70
2018-02-20T19:44:55.220Z,82.60
2018-02-20T19:47:23.775Z,83.10
2018-02-20T19:49:52.797Z,83.10
2018-02-20T19:52:21.838Z,83.30
2018-02-20T19:54:50.097Z,83.30
2018-02-20T19:57:19.370Z,83.00
2018-02-20T19:59:47.756Z,82.90
2018-02-20T20:02:16.082Z,83.10
2018-02-20T20:04:44.381Z,82.80
2018-02-20T20:07:12.623Z,83.10
2018-02-20T20:09:40.866Z,83.40
2018-02-20T20:12:09.995Z,83.70
2018-02-20T20:14:38.236Z,83.70
2018-02-20T20:17:07.406Z,84.10
2018-02-20T20:19:36.728Z,84.10
2018-02-20T20:22:05.920Z,84.20
2018-02-20T20:24:34.339Z,84.20
2018-02-20T20:27:02.862Z,84.00
2018-02-20T20:29:31.133Z,84.00
2018-02-20T20:31:59.356Z,84.10
2018-02-20T20:34:27.679Z,84.00
2018-02-20T20:36:55.948Z,84.30
2018-02-20T20:39:24.265Z,84.60
2018-02-20T20:41:53.598Z,84.80
2018-02-20T20:44:22.010Z,85.30
2018-02-20T20:46:50.392Z,85.70
2018-02-20T20:49:18.697Z,86.40
2018-02-20T20:51:46.991Z,86.60
2018-02-20T20:54:15.335Z,87.40
2018-02-20T20:56:43.927Z,87.80
2018-02-20T20:59:12.305Z,88.10
2018-02-20T21:01:40.700Z,88.00
2018-02-20T21:04:09.871Z,88.60
2018-02-20T21:06:38.158Z,88.50
2018-02-20T21:09:06.490Z,88.60
2018-02-20T21:11:35.628Z,88.50
2018-02-20T21:14:04.927Z,88.90
2018-02-20T21:16:33.200Z,88.90
2018-02-20T21:19:01.501Z,89.30
2018-02-20T21:21:30.592Z,89.60
2018-02-20T21:23:59.863Z,89.90
2018-02-20T21:26:28.996Z,89.90
2018-02-20T21:28:57.780Z,89.90
2018-02-20T21:31:27.697Z,90.00
2018-02-20T21:33:56.940Z,90.10
2018-02-20T21:36:25.477Z,90.10
2018-02-20T21:38:53.722Z,90.10
2018-02-20T21:41:22.028Z,90.10
2018-02-20T21:43:51.240Z,90.30
2018-02-20T21:46:21.335Z,90.40
2018-02-20T21:48:50.354Z,90.30
2018-02-20T21:51:18.745Z,90.40
2018-02-20T21:53:47.936Z,90.40
2018-02-20T21:56:16.416Z,90.40
2018-02-20T21:58:45.702Z,90.60
2018-02-20T22:01:14.794Z,90.20
2018-02-20T22:03:44.193Z,90.10
2018-02-20T22:06:12.479Z,90.10
2018-02-20T22:08:40.743Z,90.00
2018-02-20T22:11:09.724Z,90.40
2018-02-20T22:13:37.982Z,89.90
2018-02-20T22:16:07.125Z,90.00
2018-02-20T22:18:35.415Z,90.00
2018-02-20T22:21:04.566Z,90.10
2018-02-20T22:23:32.936Z,90.00
2018-02-20T22:26:01.170Z,90.20
2018-02-20T22:28:29.383Z,90.30
2018-02-20T22:30:57.721Z,90.50
2018-02-20T22:33:26.835Z,90.50
2018-02-20T22:35:55.181Z,90.50
2018-02-20T22:38:24.241Z,90.70
2018-02-20T22:40:52.679Z,90.70
2018-02-20T22:43:20.985Z,90.90
2018-02-20T22:45:49.239Z,90.90
2018-02-20T22:48:17.577Z,91.00
2018-02-20T22:50:46.591Z,91.10
2018-02-20T22:53:14.859Z,91.10
2018-02-20T22:55:43.155Z,91.10
2018-02-20T22:58:11.621Z,91.10
2018-02-20T23:00:39.950Z,91.10
2018-02-20T23:03:08.339Z,91.10
2018-02-20T23:05:37.413Z,91.50
2018-02-20T23:08:05.870Z,91.20
2018-02-20T23:10:34.115Z,91.20
2018-02-20T23:13:02.448Z,91.10
2018-02-20T23:15:31.523Z,91.00
2018-02-20T23:17:59.754Z,91.00
2018-02-20T23:20:28.758Z,91.10
2018-02-20T23:22:57.019Z,91.00
2018-02-20T23:25:25.612Z,91.10
2018-02-20T23:27:53.894Z,91.10
2018-02-20T23:30:22.179Z,91.20
2018-02-20T23:32:50.580Z,91.30
2018-02-20T23:35:18.990Z,91.40
2018-02-20T23:37:47.276Z,91.40
2018-02-20T23:40:15.630Z,91.40
2018-02-20T23:42:43.864Z,91.30
2018-02-20T23:45:12.195Z,91.50
2018-02-20T23:47:41.203Z,91.50
2018-02-20T23:50:10.356Z,91.60
2018-02-20T23:52:38.620Z,91.60
2018-02-20T23:55:07.844Z,91.70
2018-02-20T23:57:36.092Z,91.80
